sensor_id;sensor_type;location;lat;lon;timestamp;pressure;altitude;pressure_sealevel;temperature;humidity
62103;BME280;48077;48.104;11.702;2022-07-31T00:01:08;95789.78;;;14.45;92.94
62103;BME280;48077;48.104;11.702;2022-07-31T00:03:31;95800.28;;;14.47;92.69
62103;BME280;48077;48.104;11.702;2022-07-31T00:05:54;95785.41;;;14.39;92.37
62103;BME280;48077;48.104;11.702;2022-07-31T00:08:18;95797.84;;;14.45;92.26
62103;BME280;48077;48.104;11.702;2022-07-31T00:10:41;95788.94;;;14.40;92.13
62103;BME280;48077;48.104;11.702;2022-07-31T00:13:04;95796.91;;;14.34;92.00
62103;BME280;48077;48.104;11.702;2022-07-31T00:15:28;95792.84;;;14.32;92.68
62103;BME280;48077;48.104;11.702;2022-07-31T00:17:51;95789.78;;;14.23;92.78
62103;BME280;48077;48.104;11.702;2022-07-31T00:20:16;95786.84;;;14.25;92.50
62103;BME280;48077;48.104;11.702;2022-07-31T00:22:41;95791.66;;;14.23;92.74
62103;BME280;48077;48.104;11.702;2022-07-31T00:25:05;95792.97;;;14.20;93.04
62103;BME280;48077;48.104;11.702;2022-07-31T00:27:28;95779.97;;;14.12;92.71
62103;BME280;48077;48.104;11.702;2022-07-31T00:29:52;95780.53;;;14.14;92.86
62103;BME280;48077;48.104;11.702;2022-07-31T00:32:15;95786.22;;;14.17;92.84
62103;BME280;48077;48.104;11.702;2022-07-31T00:34:38;95771.63;;;14.08;92.66
62103;BME280;48077;48.104;11.702;2022-07-31T00:37:02;95788.81;;;14.12;93.08
62103;BME280;48077;48.104;11.702;2022-07-31T00:39:25;95783.06;;;14.04;93.37
62103;BME280;48077;48.104;11.702;2022-07-31T00:41:49;95786.03;;;14.02;93.39
62103;BME280;48077;48.104;11.702;2022-07-31T00:44:13;95791.06;;;13.99;93.47
62103;BME280;48077;48.104;11.702;2022-07-31T00:46:36;95787.59;;;13.98;93.53
62103;BME280;48077;48.104;11.702;2022-07-31T00:48:59;95789.75;;;14.01;93.15
62103;BME280;48077;48.104;11.702;2022-07-31T00:51:23;95770.84;;;13.91;93.13
62103;BME280;48077;48.104;11.702;2022-07-31T00:53:47;95785.13;;;13.96;93.44
62103;BME280;48077;48.104;11.702;2022-07-31T00:56:10;95778.47;;;13.99;93.44
62103;BME280;48077;48.104;11.702;2022-07-31T00:58:33;95772.16;;;13.88;93.35
62103;BME280;48077;48.104;11.702;2022-07-31T01:00:57;95787.00;;;13.96;93.25
62103;BME280;48077;48.104;11.702;2022-07-31T01:03:20;95786.69;;;13.92;93.22
62103;BME280;48077;48.104;11.702;2022-07-31T01:05:44;95784.47;;;13.89;93.20
62103;BME280;48077;48.104;11.702;2022-07-31T01:08:07;95789.59;;;13.91;93.20
62103;BME280;48077;48.104;11.702;2022-07-31T01:13:03;95792.94;;;13.81;93.21
62103;BME280;48077;48.104;11.702;2022-07-31T01:15:28;95798.06;;;13.83;93.30
62103;BME280;48077;48.104;11.702;2022-07-31T01:17:53;95792.94;;;13.81;93.38
62103;BME280;48077;48.104;11.702;2022-07-31T01:20:17;95791.28;;;13.75;92.88
62103;BME280;48077;48.104;11.702;2022-07-31T01:31:16;95786.72;;;13.75;94.12
62103;BME280;48077;48.104;11.702;2022-07-31T01:33:47;95789.22;;;13.82;93.85
62103;BME280;48077;48.104;11.702;2022-07-31T01:36:16;95780.03;;;13.78;94.14
62103;BME280;48077;48.104;11.702;2022-07-31T01:38:43;95787.44;;;13.88;94.11
62103;BME280;48077;48.104;11.702;2022-07-31T01:41:10;95763.41;;;13.76;93.68
62103;BME280;48077;48.104;11.702;2022-07-31T01:43:39;95786.03;;;13.85;93.22
62103;BME280;48077;48.104;11.702;2022-07-31T01:46:03;95777.19;;;13.85;93.36
62103;BME280;48077;48.104;11.702;2022-07-31T01:48:31;95770.94;;;13.79;93.23
62103;BME280;48077;48.104;11.702;2022-07-31T01:50:55;95782.50;;;13.80;93.40
62103;BME280;48077;48.104;11.702;2022-07-31T01:53:21;95774.44;;;13.80;93.62
62103;BME280;48077;48.104;11.702;2022-07-31T01:55:47;95761.50;;;13.76;93.67
62103;BME280;48077;48.104;11.702;2022-07-31T01:58:12;95772.38;;;13.87;93.62
62103;BME280;48077;48.104;11.702;2022-07-31T02:00:39;95774.84;;;13.88;93.85
62103;BME280;48077;48.104;11.702;2022-07-31T02:03:05;95769.72;;;13.87;93.66
62103;BME280;48077;48.104;11.702;2022-07-31T02:05:31;95766.22;;;13.86;93.21
62103;BME280;48077;48.104;11.702;2022-07-31T02:07:56;95767.69;;;13.94;92.96
62103;BME280;48077;48.104;11.702;2022-07-31T02:10:20;95753.63;;;13.87;92.69
62103;BME280;48077;48.104;11.702;2022-07-31T02:12:44;95776.44;;;13.89;92.62
62103;BME280;48077;48.104;11.702;2022-07-31T02:15:10;95756.91;;;13.72;92.90
62103;BME280;48077;48.104;11.702;2022-07-31T02:17:35;95777.19;;;13.85;93.51
62103;BME280;48077;48.104;11.702;2022-07-31T02:20:01;95769.38;;;13.83;93.55
62103;BME280;48077;48.104;11.702;2022-07-31T02:22:25;95766.13;;;13.81;93.50
62103;BME280;48077;48.104;11.702;2022-07-31T02:24:48;95770.78;;;13.86;93.49
62103;BME280;48077;48.104;11.702;2022-07-31T02:27:12;95779.38;;;13.88;93.66
62103;BME280;48077;48.104;11.702;2022-07-31T02:29:37;95758.84;;;13.76;93.51
62103;BME280;48077;48.104;11.702;2022-07-31T02:32:01;95769.88;;;13.80;94.17
62103;BME280;48077;48.104;11.702;2022-07-31T02:34:26;95763.53;;;13.86;94.17
62103;BME280;48077;48.104;11.702;2022-07-31T02:36:52;95773.84;;;13.94;93.93
62103;BME280;48077;48.104;11.702;2022-07-31T02:39:16;95758.50;;;13.90;94.46
62103;BME280;48077;48.104;11.702;2022-07-31T02:41:41;95765.56;;;13.96;94.44
62103;BME280;48077;48.104;11.702;2022-07-31T02:44:05;95758.88;;;13.99;94.43
62103;BME280;48077;48.104;11.702;2022-07-31T02:46:28;95767.50;;;14.01;94.43
62103;BME280;48077;48.104;11.702;2022-07-31T02:48:53;95762.19;;;14.06;94.63
62103;BME280;48077;48.104;11.702;2022-07-31T02:51:17;95765.72;;;14.06;94.58
62103;BME280;48077;48.104;11.702;2022-07-31T02:53:41;95765.63;;;14.01;94.61
62103;BME280;48077;48.104;11.702;2022-07-31T02:56:05;95753.94;;;13.90;94.32
62103;BME280;48077;48.104;11.702;2022-07-31T02:58:28;95765.06;;;13.99;94.71
62103;BME280;48077;48.104;11.702;2022-07-31T03:01:04;95768.53;;;14.00;94.45
62103;BME280;48077;48.104;11.702;2022-07-31T03:03:28;95757.19;;;13.92;94.73
62103;BME280;48077;48.104;11.702;2022-07-31T03:05:51;95770.97;;;14.01;94.66
62103;BME280;48077;48.104;11.702;2022-07-31T03:08:14;95756.69;;;13.95;94.76
62103;BME280;48077;48.104;11.702;2022-07-31T03:10:38;95766.19;;;14.03;95.02
62103;BME280;48077;48.104;11.702;2022-07-31T03:13:02;95765.63;;;14.01;95.28
62103;BME280;48077;48.104;11.702;2022-07-31T03:15:28;95759.94;;;13.97;95.33
62103;BME280;48077;48.104;11.702;2022-07-31T03:17:53;95770.81;;;14.08;95.07
62103;BME280;48077;48.104;11.702;2022-07-31T03:20:17;95761.56;;;13.99;94.94
62103;BME280;48077;48.104;11.702;2022-07-31T03:22:42;95767.06;;;14.09;95.30
62103;BME280;48077;48.104;11.702;2022-07-31T03:25:06;95753.00;;;14.02;95.29
62103;BME280;48077;48.104;11.702;2022-07-31T03:27:30;95758.47;;;14.07;95.35
62103;BME280;48077;48.104;11.702;2022-07-31T03:29:53;95756.81;;;14.06;95.38
62103;BME280;48077;48.104;11.702;2022-07-31T03:32:17;95765.44;;;14.08;95.46
62103;BME280;48077;48.104;11.702;2022-07-31T03:34:40;95771.38;;;14.10;95.21
62103;BME280;48077;48.104;11.702;2022-07-31T03:37:04;95759.25;;;14.07;95.15
62103;BME280;48077;48.104;11.702;2022-07-31T03:39:27;95763.03;;;14.06;95.14
62103;BME280;48077;48.104;11.702;2022-07-31T03:41:51;95762.47;;;14.04;95.13
62103;BME280;48077;48.104;11.702;2022-07-31T03:44:15;95764.06;;;14.05;95.40
62103;BME280;48077;48.104;11.702;2022-07-31T03:46:38;95759.44;;;14.01;95.47
62103;BME280;48077;48.104;11.702;2022-07-31T03:49:02;95747.03;;;13.94;95.57
62103;BME280;48077;48.104;11.702;2022-07-31T03:51:27;95764.56;;;14.02;95.62
62103;BME280;48077;48.104;11.702;2022-07-31T03:53:50;95751.03;;;13.92;95.31
62103;BME280;48077;48.104;11.702;2022-07-31T03:56:14;95762.63;;;13.97;95.79
62103;BME280;48077;48.104;11.702;2022-07-31T03:58:39;95755.88;;;13.95;95.94
62103;BME280;48077;48.104;11.702;2022-07-31T04:01:03;95754.75;;;13.91;96.04
62103;BME280;48077;48.104;11.702;2022-07-31T04:03:30;95765.81;;;13.94;95.73
62103;BME280;48077;48.104;11.702;2022-07-31T04:05:54;95768.72;;;13.93;95.83
62103;BME280;48077;48.104;11.702;2022-07-31T04:08:17;95755.50;;;13.86;95.46
62103;BME280;48077;48.104;11.702;2022-07-31T04:10:40;95761.66;;;13.87;95.77
62103;BME280;48077;48.104;11.702;2022-07-31T04:13:04;95771.41;;;13.93;95.71
62103;BME280;48077;48.104;11.702;2022-07-31T04:15:28;95767.13;;;13.92;95.87
62103;BME280;48077;48.104;11.702;2022-07-31T04:17:51;95774.66;;;13.95;95.46
62103;BME280;48077;48.104;11.702;2022-07-31T04:20:15;95764.91;;;13.89;95.55
62103;BME280;48077;48.104;11.702;2022-07-31T04:22:38;95777.34;;;13.95;95.56
62103;BME280;48077;48.104;11.702;2022-07-31T04:25:03;95772.53;;;13.97;96.08
62103;BME280;48077;48.104;11.702;2022-07-31T04:27:26;95774.97;;;13.99;95.90
62103;BME280;48077;48.104;11.702;2022-07-31T04:29:50;95763.13;;;13.94;96.08
62103;BME280;48077;48.104;11.702;2022-07-31T04:32:13;95772.13;;;14.05;96.24
62103;BME280;48077;48.104;11.702;2022-07-31T04:34:37;95770.00;;;14.07;96.16
62103;BME280;48077;48.104;11.702;2022-07-31T04:37:00;95766.19;;;14.03;96.13
62103;BME280;48077;48.104;11.702;2022-07-31T04:39:24;95781.91;;;14.16;95.92
62103;BME280;48077;48.104;11.702;2022-07-31T04:41:47;95782.75;;;14.17;95.25
62103;BME280;48077;48.104;11.702;2022-07-31T04:44:11;95789.22;;;14.21;95.69
62103;BME280;48077;48.104;11.702;2022-07-31T04:46:34;95788.16;;;14.22;95.79
62103;BME280;48077;48.104;11.702;2022-07-31T04:48:58;95786.59;;;14.26;95.62
62103;BME280;48077;48.104;11.702;2022-07-31T04:51:22;95789.09;;;14.33;95.74
62103;BME280;48077;48.104;11.702;2022-07-31T04:53:46;95788.94;;;14.40;95.76
62103;BME280;48077;48.104;11.702;2022-07-31T04:56:10;95792.41;;;14.40;95.98
62103;BME280;48077;48.104;11.702;2022-07-31T04:58:51;95786.63;;;14.48;96.38
62103;BME280;48077;48.104;11.702;2022-07-31T05:01:15;95769.97;;;14.46;96.31
62103;BME280;48077;48.104;11.702;2022-07-31T05:03:38;95770.81;;;14.52;96.23
62103;BME280;48077;48.104;11.702;2022-07-31T05:06:09;95789.75;;;14.62;96.42
62103;BME280;48077;48.104;11.702;2022-07-31T05:08:33;95789.59;;;14.69;96.26
62103;BME280;48077;48.104;11.702;2022-07-31T05:10:56;95774.75;;;14.66;96.31
62103;BME280;48077;48.104;11.702;2022-07-31T05:13:38;95784.63;;;14.83;96.32
62103;BME280;48077;48.104;11.702;2022-07-31T05:16:02;95782.44;;;14.80;95.83
62103;BME280;48077;48.104;11.702;2022-07-31T05:18:25;95783.91;;;14.92;96.08
62103;BME280;48077;48.104;11.702;2022-07-31T05:20:49;95772.72;;;15.01;95.92
62103;BME280;48077;48.104;11.702;2022-07-31T05:23:12;95788.72;;;15.17;95.09
62103;BME280;48077;48.104;11.702;2022-07-31T05:25:36;95778.56;;;15.25;94.36
62103;BME280;48077;48.104;11.702;2022-07-31T05:28:00;95773.81;;;15.32;93.58
62103;BME280;48077;48.104;11.702;2022-07-31T05:30:23;95787.38;;;15.47;92.50
62103;BME280;48077;48.104;11.702;2022-07-31T05:32:47;95787.16;;;15.54;92.03
62103;BME280;48077;48.104;11.702;2022-07-31T05:35:11;95759.38;;;15.43;92.42
62103;BME280;48077;48.104;11.702;2022-07-31T05:37:34;95785.56;;;15.58;92.37
62103;BME280;48077;48.104;11.702;2022-07-31T05:39:58;95785.31;;;15.54;92.59
62103;BME280;48077;48.104;11.702;2022-07-31T05:42:21;95785.84;;;15.56;93.00
62103;BME280;48077;48.104;11.702;2022-07-31T05:44:44;95790.94;;;15.58;93.27
62103;BME280;48077;48.104;11.702;2022-07-31T05:47:08;95797.16;;;15.58;93.63
62103;BME280;48077;48.104;11.702;2022-07-31T05:49:31;95798.00;;;15.64;93.63
62103;BME280;48077;48.104;11.702;2022-07-31T05:51:55;95799.94;;;15.69;93.84
62103;BME280;48077;48.104;11.702;2022-07-31T05:54:19;95795.09;;;15.71;94.42
62103;BME280;48077;48.104;11.702;2022-07-31T05:56:43;95787.00;;;15.66;94.24
62103;BME280;48077;48.104;11.702;2022-07-31T05:59:06;95805.44;;;15.84;94.97
62103;BME280;48077;48.104;11.702;2022-07-31T06:01:29;95808.19;;;15.94;94.86
62103;BME280;48077;48.104;11.702;2022-07-31T06:03:53;95790.72;;;15.97;94.09
62103;BME280;48077;48.104;11.702;2022-07-31T06:06:16;95801.63;;;16.17;92.59
62103;BME280;48077;48.104;11.702;2022-07-31T06:08:39;95788.22;;;16.28;91.89
62103;BME280;48077;48.104;11.702;2022-07-31T06:11:03;95804.47;;;16.53;91.00
62103;BME280;48077;48.104;11.702;2022-07-31T06:13:26;95809.41;;;16.67;89.85
62103;BME280;48077;48.104;11.702;2022-07-31T06:15:50;95815.94;;;16.81;89.02
62103;BME280;48077;48.104;11.702;2022-07-31T06:18:13;95813.81;;;16.93;88.40
62103;BME280;48077;48.104;11.702;2022-07-31T06:20:37;95809.84;;;17.06;87.42
62103;BME280;48077;48.104;11.702;2022-07-31T06:23:01;95795.28;;;17.17;87.29
62103;BME280;48077;48.104;11.702;2022-07-31T06:25:25;95799.91;;;17.32;86.47
62103;BME280;48077;48.104;11.702;2022-07-31T06:27:48;95807.44;;;17.56;85.17
62103;BME280;48077;48.104;11.702;2022-07-31T06:30:12;95808.28;;;17.72;84.29
62103;BME280;48077;48.104;11.702;2022-07-31T06:32:36;95794.78;;;17.77;nan
62103;BME280;48077;48.104;11.702;2022-07-31T06:35:00;95808.56;;;17.91;81.53
62103;BME280;48077;48.104;11.702;2022-07-31T06:37:23;95806.41;;;17.98;81.47
62103;BME280;48077;48.104;11.702;2022-07-31T06:39:48;95792.63;;;17.99;81.05
62103;BME280;48077;48.104;11.702;2022-07-31T06:42:17;95795.03;;;18.06;80.57
62103;BME280;48077;48.104;11.702;2022-07-31T06:44:41;95787.47;;;18.08;80.95
62103;BME280;48077;48.104;11.702;2022-07-31T06:47:04;95791.53;;;18.21;80.33
62103;BME280;48077;48.104;11.702;2022-07-31T06:49:28;95785.53;;;18.34;80.53
62103;BME280;48077;48.104;11.702;2022-07-31T06:51:51;95796.31;;;18.45;80.23
62103;BME280;48077;48.104;11.702;2022-07-31T06:54:15;95790.06;;;18.49;79.35
62103;BME280;48077;48.104;11.702;2022-07-31T06:56:39;95794.66;;;18.59;79.25
62103;BME280;48077;48.104;11.702;2022-07-31T06:59:04;95798.38;;;18.68;78.65
62103;BME280;48077;48.104;11.702;2022-07-31T07:01:28;95809.97;;;18.79;79.01
62103;BME280;48077;48.104;11.702;2022-07-31T07:03:52;95806.72;;;18.82;77.98
62103;BME280;48077;48.104;11.702;2022-07-31T07:06:16;95809.16;;;18.84;78.82
62103;BME280;48077;48.104;11.702;2022-07-31T07:08:39;95809.44;;;18.82;78.16
62103;BME280;48077;48.104;11.702;2022-07-31T07:11:03;95815.91;;;18.86;77.98
62103;BME280;48077;48.104;11.702;2022-07-31T07:13:27;95812.09;;;18.87;78.32
62103;BME280;48077;48.104;11.702;2022-07-31T07:15:51;95817.75;;;18.91;78.59
62103;BME280;48077;48.104;11.702;2022-07-31T07:18:15;95816.69;;;18.92;77.90
62103;BME280;48077;48.104;11.702;2022-07-31T07:20:39;95812.63;;;18.89;78.81
62103;BME280;48077;48.104;11.702;2022-07-31T07:23:02;95809.66;;;18.91;77.94
62103;BME280;48077;48.104;11.702;2022-07-31T07:25:26;95806.69;;;18.92;78.08
62103;BME280;48077;48.104;11.702;2022-07-31T07:27:49;95806.94;;;18.96;77.02
62103;BME280;48077;48.104;11.702;2022-07-31T07:30:13;95813.91;;;19.07;77.37
62103;BME280;48077;48.104;11.702;2022-07-31T07:32:36;95811.69;;;19.14;77.70
62103;BME280;48077;48.104;11.702;2022-07-31T07:35:00;95808.69;;;19.21;76.93
62103;BME280;48077;48.104;11.702;2022-07-31T07:37:23;95816.22;;;19.29;77.01
62103;BME280;48077;48.104;11.702;2022-07-31T07:39:47;95815.69;;;19.27;71.50
62103;BME280;48077;48.104;11.702;2022-07-31T07:42:10;95812.13;;;19.32;71.91
62103;BME280;48077;48.104;11.702;2022-07-31T07:44:34;95816.22;;;19.29;70.25
62103;BME280;48077;48.104;11.702;2022-07-31T07:46:57;95804.56;;;19.34;70.93
62103;BME280;48077;48.104;11.702;2022-07-31T07:49:20;95806.94;;;19.40;68.62
62103;BME280;48077;48.104;11.702;2022-07-31T07:51:44;95802.53;;;19.50;68.83
62103;BME280;48077;48.104;11.702;2022-07-31T07:54:07;95793.59;;;19.54;69.11
62103;BME280;48077;48.104;11.702;2022-07-31T07:56:31;95797.00;;;19.70;69.29
62103;BME280;48077;48.104;11.702;2022-07-31T07:58:54;95790.47;;;19.76;69.05
62103;BME280;48077;48.104;11.702;2022-07-31T08:01:18;95783.97;;;19.77;68.84
62103;BME280;48077;48.104;11.702;2022-07-31T08:03:42;95797.63;;;19.91;67.61
62103;BME280;48077;48.104;11.702;2022-07-31T08:06:06;95792.22;;;19.91;66.38
62103;BME280;48077;48.104;11.702;2022-07-31T08:08:30;95794.56;;;20.03;66.56
62103;BME280;48077;48.104;11.702;2022-07-31T08:10:53;95780.97;;;20.08;66.18
62103;BME280;48077;48.104;11.702;2022-07-31T08:13:17;95786.78;;;20.20;65.76
62103;BME280;48077;48.104;11.702;2022-07-31T08:15:40;95782.63;;;20.33;65.05
62103;BME280;48077;48.104;11.702;2022-07-31T08:18:04;95786.81;;;20.45;64.87
62103;BME280;48077;48.104;11.702;2022-07-31T08:20:27;95774.84;;;20.51;64.28
62103;BME280;48077;48.104;11.702;2022-07-31T08:22:50;95771.53;;;20.54;63.88
62103;BME280;48077;48.104;11.702;2022-07-31T08:25:15;95779.28;;;20.66;63.70
62103;BME280;48077;48.104;11.702;2022-07-31T08:27:38;95788.56;;;20.84;63.44
62103;BME280;48077;48.104;11.702;2022-07-31T08:30:02;95792.22;;;20.93;62.05
62103;BME280;48077;48.104;11.702;2022-07-31T08:32:26;95763.56;;;20.87;61.25
62103;BME280;48077;48.104;11.702;2022-07-31T08:34:50;95777.28;;;20.95;62.38
62103;BME280;48077;48.104;11.702;2022-07-31T08:37:14;95787.84;;;20.97;62.27
62103;BME280;48077;48.104;11.702;2022-07-31T08:39:41;95784.56;;;21.00;61.92
62103;BME280;48077;48.104;11.702;2022-07-31T08:42:05;95794.22;;;21.06;60.86
62103;BME280;48077;48.104;11.702;2022-07-31T08:44:29;95776.78;;;21.12;60.93
62103;BME280;48077;48.104;11.702;2022-07-31T08:46:54;95766.88;;;21.21;60.32
62103;BME280;48077;48.104;11.702;2022-07-31T08:49:21;95783.53;;;21.34;58.41
62103;BME280;48077;48.104;11.702;2022-07-31T08:51:46;95758.97;;;21.25;57.87
62103;BME280;48077;48.104;11.702;2022-07-31T08:54:12;95785.88;;;21.40;57.93
62103;BME280;48077;48.104;11.702;2022-07-31T08:56:37;95783.81;;;21.51;59.08
62103;BME280;48077;48.104;11.702;2022-07-31T08:59:02;95774.16;;;21.45;58.52
62103;BME280;48077;48.104;11.702;2022-07-31T09:01:25;95777.31;;;21.52;57.91
62103;BME280;48077;48.104;11.702;2022-07-31T09:03:51;95774.00;;;21.55;57.53
62103;BME280;48077;48.104;11.702;2022-07-31T09:06:15;95777.94;;;21.63;57.06
62103;BME280;48077;48.104;11.702;2022-07-31T09:08:38;95770.31;;;21.65;55.83
62103;BME280;48077;48.104;11.702;2022-07-31T09:11:05;95776.28;;;21.81;55.29
62103;BME280;48077;48.104;11.702;2022-07-31T09:13:29;95783.06;;;21.97;55.22
62103;BME280;48077;48.104;11.702;2022-07-31T09:15:56;95773.94;;;22.07;54.92
62103;BME280;48077;48.104;11.702;2022-07-31T09:18:20;95755.66;;;22.13;54.72
62103;BME280;48077;48.104;11.702;2022-07-31T09:21:00;95769.88;;;22.37;53.26
62103;BME280;48077;48.104;11.702;2022-07-31T09:23:25;95768.78;;;22.52;53.73
62103;BME280;48077;48.104;11.702;2022-07-31T09:25:57;95760.72;;;22.61;51.34
62103;BME280;48077;48.104;11.702;2022-07-31T09:31:41;95760.94;;;22.51;50.83
62103;BME280;48077;48.104;11.702;2022-07-31T09:34:04;95763.63;;;22.64;51.64
62103;BME280;48077;48.104;11.702;2022-07-31T09:36:28;95753.88;;;22.77;50.15
62103;BME280;48077;48.104;11.702;2022-07-31T09:38:52;95751.94;;;22.92;49.23
62103;BME280;48077;48.104;11.702;2022-07-31T09:41:20;95751.13;;;23.05;49.54
62103;BME280;48077;48.104;11.702;2022-07-31T09:43:43;95755.00;;;23.27;49.65
62103;BME280;48077;48.104;11.702;2022-07-31T09:46:15;95745.72;;;23.28;49.11
62103;BME280;48077;48.104;11.702;2022-07-31T09:48:49;95750.44;;;23.36;48.86
62103;BME280;48077;48.104;11.702;2022-07-31T09:51:12;95734.59;;;23.38;48.01
62103;BME280;48077;48.104;11.702;2022-07-31T09:53:41;95751.28;;;23.45;47.08
62103;BME280;48077;48.104;11.702;2022-07-31T09:56:04;95753.72;;;23.47;46.31
62103;BME280;48077;48.104;11.702;2022-07-31T09:58:30;95746.91;;;23.58;46.27
62103;BME280;48077;48.104;11.702;2022-07-31T10:00:54;95743.75;;;23.64;45.40
62103;BME280;48077;48.104;11.702;2022-07-31T10:03:19;95732.44;;;23.71;45.95
62103;BME280;48077;48.104;11.702;2022-07-31T10:05:43;95741.66;;;23.84;41.66
62103;BME280;48077;48.104;11.702;2022-07-31T10:08:07;95738.31;;;23.87;40.92
62103;BME280;48077;48.104;11.702;2022-07-31T10:10:31;95746.91;;;24.03;39.87
62103;BME280;48077;48.104;11.702;2022-07-31T10:12:58;95732.22;;;24.13;40.62
62103;BME280;48077;48.104;11.702;2022-07-31T10:15:24;95741.75;;;24.33;40.76
62103;BME280;48077;48.104;11.702;2022-07-31T10:17:50;95728.38;;;24.22;39.16
62103;BME280;48077;48.104;11.702;2022-07-31T10:20:17;95741.25;;;24.31;38.58
62103;BME280;48077;48.104;11.702;2022-07-31T10:22:49;95728.31;;;24.45;40.57
62103;BME280;48077;48.104;11.702;2022-07-31T10:25:26;95720.38;;;24.57;39.86
62103;BME280;48077;48.104;11.702;2022-07-31T10:27:50;95723.59;;;24.68;40.41
62103;BME280;48077;48.104;11.702;2022-07-31T10:30:15;95723.00;;;24.80;39.86
62103;BME280;48077;48.104;11.702;2022-07-31T10:32:39;95731.50;;;24.96;39.85
62103;BME280;48077;48.104;11.702;2022-07-31T10:35:04;95727.50;;;25.02;39.06
62103;BME280;48077;48.104;11.702;2022-07-31T10:37:37;95719.66;;;25.18;38.84
62103;BME280;48077;48.104;11.702;2022-07-31T10:40:19;95693.16;;;25.18;37.11
62103;BME280;48077;48.104;11.702;2022-07-31T10:42:54;95724.19;;;25.40;36.50
62103;BME280;48077;48.104;11.702;2022-07-31T10:45:23;95724.97;;;25.58;35.79
62103;BME280;48077;48.104;11.702;2022-07-31T10:47:59;95724.78;;;25.72;34.88
62103;BME280;48077;48.104;11.702;2022-07-31T10:50:25;95688.34;;;25.68;36.03
62103;BME280;48077;48.104;11.702;2022-07-31T10:52:49;95709.69;;;25.92;35.68
62103;BME280;48077;48.104;11.702;2022-07-31T10:55:17;95694.09;;;25.83;35.03
62103;BME280;48077;48.104;11.702;2022-07-31T10:57:41;95712.34;;;26.09;34.48
62103;BME280;48077;48.104;11.702;2022-07-31T11:00:12;95696.75;;;26.10;36.33
62103;BME280;48077;48.104;11.702;2022-07-31T11:02:36;95710.69;;;26.25;36.02
62103;BME280;48077;48.104;11.702;2022-07-31T11:05:19;95708.47;;;26.19;34.54
62103;BME280;48077;48.104;11.702;2022-07-31T11:08:00;95705.22;;;26.25;33.78
62103;BME280;48077;48.104;11.702;2022-07-31T11:10:23;95706.34;;;26.24;32.86
62103;BME280;48077;48.104;11.702;2022-07-31T11:13:04;95692.25;;;26.43;33.18
62103;BME280;48077;48.104;11.702;2022-07-31T11:15:29;95684.19;;;26.47;32.05
62103;BME280;48077;48.104;11.702;2022-07-31T11:17:53;95694.28;;;26.64;32.42
62103;BME280;48077;48.104;11.702;2022-07-31T11:20:22;95699.41;;;26.65;31.49
62103;BME280;48077;48.104;11.702;2022-07-31T11:22:54;95695.59;;;27.09;32.75
62103;BME280;48077;48.104;11.702;2022-07-31T11:25:18;95702.50;;;27.36;32.39
62103;BME280;48077;48.104;11.702;2022-07-31T11:27:41;95685.22;;;27.14;32.87
62103;BME280;48077;48.104;11.702;2022-07-31T11:30:06;95688.25;;;27.00;33.33
62103;BME280;48077;48.104;11.702;2022-07-31T11:32:30;95685.38;;;27.18;33.39
62103;BME280;48077;48.104;11.702;2022-07-31T11:34:55;95689.41;;;26.70;33.01
62103;BME280;48077;48.104;11.702;2022-07-31T11:37:22;95687.69;;;26.65;34.31
62103;BME280;48077;48.104;11.702;2022-07-31T11:39:46;95687.94;;;27.23;33.73
62103;BME280;48077;48.104;11.702;2022-07-31T11:42:10;95686.78;;;27.03;33.07
62103;BME280;48077;48.104;11.702;2022-07-31T11:44:34;95692.84;;;26.58;34.54
62103;BME280;48077;48.104;11.702;2022-07-31T11:46:58;95690.72;;;26.34;34.78
62103;BME280;48077;48.104;11.702;2022-07-31T11:49:21;95680.91;;;26.33;34.88
62103;BME280;48077;48.104;11.702;2022-07-31T11:51:46;95692.13;;;26.40;34.77
62103;BME280;48077;48.104;11.702;2022-07-31T11:54:10;95695.50;;;26.37;34.67
62103;BME280;48077;48.104;11.702;2022-07-31T11:56:33;95686.19;;;26.38;34.58
62103;BME280;48077;48.104;11.702;2022-07-31T11:58:57;95690.38;;;26.35;34.12
62103;BME280;48077;48.104;11.702;2022-07-31T12:01:28;95685.94;;;26.52;30.71
62103;BME280;48077;48.104;11.702;2022-07-31T12:03:51;95691.59;;;26.47;33.10
62103;BME280;48077;48.104;11.702;2022-07-31T12:06:17;95683.84;;;26.57;32.48
62103;BME280;48077;48.104;11.702;2022-07-31T12:08:41;95685.91;;;26.60;33.59
62103;BME280;48077;48.104;11.702;2022-07-31T12:11:06;95686.28;;;26.50;33.29
62103;BME280;48077;48.104;11.702;2022-07-31T12:13:31;95685.19;;;26.42;34.44
62103;BME280;48077;48.104;11.702;2022-07-31T12:15:56;95695.88;;;26.27;34.02
62103;BME280;48077;48.104;11.702;2022-07-31T12:18:20;95677.59;;;26.18;34.48
62103;BME280;48077;48.104;11.702;2022-07-31T12:20:54;95681.03;;;26.07;35.31
62103;BME280;48077;48.104;11.702;2022-07-31T12:23:18;95674.88;;;26.10;35.17
62103;BME280;48077;48.104;11.702;2022-07-31T12:25:42;95667.22;;;26.33;35.46
62103;BME280;48077;48.104;11.702;2022-07-31T12:28:08;95656.22;;;26.50;35.34
62103;BME280;48077;48.104;11.702;2022-07-31T12:30:32;95668.69;;;26.90;34.97
62103;BME280;48077;48.104;11.702;2022-07-31T12:33:03;95663.88;;;27.62;32.47
62103;BME280;48077;48.104;11.702;2022-07-31T12:35:34;95656.31;;;27.47;33.30
62103;BME280;48077;48.104;11.702;2022-07-31T12:37:57;95664.69;;;27.29;32.71
62103;BME280;48077;48.104;11.702;2022-07-31T12:40:25;95656.13;;;27.10;33.20
62103;BME280;48077;48.104;11.702;2022-07-31T12:42:49;95653.06;;;26.90;35.89
62103;BME280;48077;48.104;11.702;2022-07-31T12:45:12;95662.94;;;26.82;34.02
62103;BME280;48077;48.104;11.702;2022-07-31T12:47:36;95649.75;;;26.55;34.36
62103;BME280;48077;48.104;11.702;2022-07-31T12:50:00;95661.28;;;26.90;34.46
62103;BME280;48077;48.104;11.702;2022-07-31T12:52:26;95663.56;;;26.58;34.08